GBNLL EGJJ-EGKB
Flight info
| Callsign | GBNLL |
|---|---|
| Flight time | 4h 38m |
| Altitude | 5000 |
| Route | EGJB DCT EGJA DCT EGHH DCT EGDM DCT EGHI DCT EGHF DCT EGKA DCT EGKK DCT EGLF DCT EGVO DCT EGUB DCT EGVN DCT EGVA DCT EGBP DCT EGBJ DCT EGTC DCT EGGW DCT EGSU DCT EGSC DCT EGUN DCT EGUW DCT EGSS DCT EGMC DCT EGLC |
| Aircraft | B744/H-SDE3FGHIM1M2RWXY/LB1 |
Departure
| Time | 2026-04-24 16:27 |
|---|---|
| Airport | Jersey Airport (EGJJ) |
Arrival
| Time | 2026-04-24 21:05 |
|---|---|
| Airport | London Biggin Hill Airport (EGKB) |
| Time | Latitude | Longitude | Altitude | Speed | Heading |
|---|---|---|---|---|---|
| 2026-04-24 16:04 | 49.20404 | -2.19822 | 277 ft | 0 kts | 221° |
| 2026-04-24 16:21 | 49.20411 | -2.19813 | 303 ft | 4 kts | 221° |
| 2026-04-24 16:22 | 49.20426 | -2.19774 | 304 ft | 5 kts | 271° |
| 2026-04-24 16:22 | 49.20425 | -2.19746 | 293 ft | 0 kts | 276° |
| 2026-04-24 16:24 | 49.20430 | -2.19809 | 285 ft | 16 kts | 276° |
| 2026-04-24 16:24 | 49.20471 | -2.19929 | 296 ft | 12 kts | 349° |
| 2026-04-24 16:25 | 49.20526 | -2.20016 | 296 ft | 16 kts | 284° |
| 2026-04-24 16:25 | 49.20563 | -2.20223 | 296 ft | 18 kts | 286° |
| 2026-04-24 16:25 | 49.20601 | -2.20420 | 294 ft | 20 kts | 287° |
| 2026-04-24 16:26 | 49.20655 | -2.20696 | 296 ft | 7 kts | 353° |
| 2026-04-24 16:26 | 49.20709 | -2.20631 | 295 ft | 16 kts | 82° |
| 2026-04-24 16:26 | 49.20809 | -2.19399 | 296 ft | 113 kts | 82° |
| 2026-04-24 16:27 | 49.20896 | -2.18023 | 673 ft | 138 kts | 85° |
| 2026-04-24 16:27 | 49.20911 | -2.16541 | 1417 ft | 141 kts | 88° |
| 2026-04-24 16:27 | 49.20891 | -2.14980 | 1712 ft | 148 kts | 82° |
| 2026-04-24 16:27 | 49.21282 | -2.13616 | 1681 ft | 134 kts | 50° |
| 2026-04-24 16:28 | 49.22187 | -2.12953 | 1621 ft | 157 kts | 12° |
| 2026-04-24 16:28 | 49.23265 | -2.13397 | 1580 ft | 169 kts | 337° |
| 2026-04-24 16:28 | 49.24232 | -2.16669 | 1529 ft | 183 kts | 269° |
| 2026-04-24 16:29 | 49.23953 | -2.18527 | 1475 ft | 178 kts | 259° |
| 2026-04-24 16:29 | 49.23649 | -2.20392 | 1481 ft | 179 kts | 259° |
| 2026-04-24 16:29 | 49.23039 | -2.24057 | 1449 ft | 185 kts | 260° |
| 2026-04-24 16:30 | 49.21446 | -2.26552 | 1414 ft | 171 kts | 178° |
| 2026-04-24 16:30 | 49.20444 | -2.25915 | 1299 ft | 149 kts | 128° |
| 2026-04-24 16:30 | 49.20282 | -2.24572 | 1111 ft | 125 kts | 75° |
| 2026-04-24 16:31 | 49.20472 | -2.23328 | 823 ft | 119 kts | 83° |
| 2026-04-24 16:31 | 49.20580 | -2.22068 | 553 ft | 121 kts | 84° |
| 2026-04-24 16:31 | 49.20685 | -2.20843 | 326 ft | 117 kts | 81° |
| 2026-04-24 16:31 | 49.20792 | -2.19638 | 294 ft | 105 kts | 82° |
| 2026-04-24 16:32 | 49.20861 | -2.18774 | 357 ft | 135 kts | 82° |
| 2026-04-24 16:32 | 49.21042 | -2.16729 | 1296 ft | 160 kts | 77° |
| 2026-04-24 16:32 | 49.21257 | -2.15102 | 1472 ft | 158 kts | 74° |
| 2026-04-24 16:32 | 49.21285 | -2.13509 | 1521 ft | 151 kts | 102° |
| 2026-04-24 16:33 | 49.20634 | -2.12193 | 1499 ft | 164 kts | 132° |
| 2026-04-24 16:33 | 49.19579 | -2.11444 | 1452 ft | 171 kts | 161° |
| 2026-04-24 16:33 | 49.18388 | -2.11595 | 1534 ft | 173 kts | 194° |
| 2026-04-24 16:33 | 49.17422 | -2.12731 | 1513 ft | 185 kts | 227° |
| 2026-04-24 16:34 | 49.16843 | -2.14442 | 1467 ft | 189 kts | 253° |
| 2026-04-24 16:34 | 49.16567 | -2.16351 | 1474 ft | 187 kts | 259° |
| 2026-04-24 16:34 | 49.16328 | -2.18242 | 1512 ft | 180 kts | 261° |
| 2026-04-24 16:34 | 49.16086 | -2.20136 | 1519 ft | 180 kts | 261° |
| 2026-04-24 16:35 | 49.15883 | -2.22079 | 1598 ft | 178 kts | 263° |
| 2026-04-24 16:35 | 49.15693 | -2.24001 | 1582 ft | 187 kts | 263° |
| 2026-04-24 16:35 | 49.15647 | -2.25965 | 1610 ft | 182 kts | 288° |
| 2026-04-24 16:35 | 49.16245 | -2.27527 | 1632 ft | 167 kts | 324° |
| 2026-04-24 16:36 | 49.17226 | -2.28352 | 1579 ft | 158 kts | 349° |
| 2026-04-24 16:36 | 49.18341 | -2.28565 | 1413 ft | 162 kts | 8° |
| 2026-04-24 16:36 | 49.19324 | -2.28024 | 1264 ft | 144 kts | 34° |
| 2026-04-24 16:36 | 49.19932 | -2.26961 | 1149 ft | 131 kts | 64° |
| 2026-04-24 16:37 | 49.20188 | -2.25637 | 1010 ft | 123 kts | 72° |
| 2026-04-24 16:37 | 49.20360 | -2.24396 | 828 ft | 123 kts | 75° |
| 2026-04-24 16:37 | 49.20450 | -2.23579 | 720 ft | 117 kts | 76° |
| 2026-04-24 16:37 | 49.20594 | -2.22000 | 492 ft | 120 kts | 77° |
| 2026-04-24 16:38 | 49.20702 | -2.20752 | 323 ft | 125 kts | 78° |
| 2026-04-24 16:38 | 49.20799 | -2.19611 | 293 ft | 77 kts | 83° |
| 2026-04-24 16:38 | 49.20820 | -2.19159 | 296 ft | 27 kts | 99° |
| 2026-04-24 16:38 | 49.20769 | -2.18929 | 293 ft | 11 kts | 112° |
| 2026-04-24 16:39 | 49.20744 | -2.18865 | 296 ft | 3 kts | 152° |
| 2026-04-24 16:39 | 49.20705 | -2.18885 | 295 ft | 12 kts | 246° |
| 2026-04-24 16:39 | 49.20688 | -2.19063 | 294 ft | 23 kts | 263° |
| 2026-04-24 16:39 | 49.20689 | -2.19263 | 295 ft | 21 kts | 283° |
| 2026-04-24 16:40 | 49.20707 | -2.19471 | 294 ft | 22 kts | 260° |
| 2026-04-24 16:40 | 49.20669 | -2.19643 | 295 ft | 17 kts | 217° |
| 2026-04-24 16:40 | 49.20605 | -2.19791 | 295 ft | 23 kts | 272° |
| 2026-04-24 16:40 | 49.20570 | -2.19929 | 294 ft | 16 kts | 185° |
| 2026-04-24 16:41 | 49.20454 | -2.19912 | 294 ft | 11 kts | 143° |
| 2026-04-24 16:41 | 49.20457 | -2.19793 | 294 ft | 12 kts | 67° |
| 2026-04-24 16:41 | 49.20423 | -2.19731 | 293 ft | 10 kts | 216° |
| 2026-04-24 16:41 | 49.20405 | -2.19752 | 294 ft | 4 kts | 218° |
| 2026-04-24 16:42 | 49.20405 | -2.19753 | 295 ft | 0 kts | 218° |
| 2026-04-24 18:54 | 51.06518 | -0.20322 | 1400 ft | 155 kts | 9° |
| 2026-04-24 18:55 | 51.08671 | -0.20215 | 1332 ft | 160 kts | 344° |
| 2026-04-24 18:55 | 51.09620 | -0.21132 | 1201 ft | 154 kts | 330° |
| 2026-04-24 18:55 | 51.10428 | -0.22171 | 1140 ft | 148 kts | 324° |
| 2026-04-24 18:56 | 51.11215 | -0.23230 | 1061 ft | 150 kts | 323° |
| 2026-04-24 18:56 | 51.12037 | -0.24354 | 935 ft | 157 kts | 327° |
| 2026-04-24 18:56 | 51.13012 | -0.24735 | 769 ft | 148 kts | 22° |
| 2026-04-24 18:56 | 51.13847 | -0.23832 | 679 ft | 147 kts | 50° |
| 2026-04-24 18:57 | 51.14312 | -0.22390 | 506 ft | 147 kts | 72° |
| 2026-04-24 18:57 | 51.14569 | -0.20827 | 278 ft | 144 kts | 77° |
| 2026-04-24 18:57 | 51.14775 | -0.19335 | 217 ft | 135 kts | 78° |
| 2026-04-24 18:57 | 51.14978 | -0.17717 | 466 ft | 147 kts | 79° |
| 2026-04-24 18:58 | 51.15536 | -0.16137 | 1103 ft | 164 kts | 34° |
| 2026-04-24 18:58 | 51.16792 | -0.15827 | 1401 ft | 199 kts | 349° |
| 2026-04-24 18:58 | 51.18126 | -0.16537 | 1453 ft | 203 kts | 346° |
| 2026-04-24 18:58 | 51.19383 | -0.17499 | 1529 ft | 209 kts | 320° |
| 2026-04-24 18:59 | 51.20004 | -0.19606 | 1559 ft | 215 kts | 291° |
| 2026-04-24 18:59 | 51.20540 | -0.21880 | 1637 ft | 218 kts | 295° |
| 2026-04-24 18:59 | 51.21127 | -0.24132 | 1667 ft | 221 kts | 295° |
| 2026-04-24 18:59 | 51.21719 | -0.26402 | 1568 ft | 221 kts | 295° |
| 2026-04-24 19:00 | 51.22311 | -0.28666 | 1527 ft | 220 kts | 295° |
| 2026-04-24 19:00 | 51.22809 | -0.30979 | 1508 ft | 221 kts | 280° |
| 2026-04-24 19:00 | 51.22850 | -0.33455 | 1518 ft | 224 kts | 271° |
| 2026-04-24 19:00 | 51.22823 | -0.36018 | 1527 ft | 236 kts | 270° |
| 2026-04-24 19:01 | 51.22790 | -0.38616 | 1528 ft | 238 kts | 270° |
| 2026-04-24 19:01 | 51.22754 | -0.41238 | 1528 ft | 237 kts | 270° |
| 2026-04-24 19:01 | 51.22717 | -0.43863 | 1512 ft | 234 kts | 270° |
| 2026-04-24 19:01 | 51.22861 | -0.46450 | 1514 ft | 236 kts | 285° |
| 2026-04-24 19:02 | 51.23141 | -0.48121 | 1516 ft | 234 kts | 288° |
| 2026-04-24 19:02 | 51.23754 | -0.51377 | 1508 ft | 224 kts | 289° |
| 2026-04-24 19:02 | 51.24290 | -0.53654 | 1514 ft | 219 kts | 300° |
| 2026-04-24 19:02 | 51.24995 | -0.55680 | 1480 ft | 198 kts | 302° |
| 2026-04-24 19:03 | 51.25646 | -0.57478 | 1454 ft | 174 kts | 303° |
| 2026-04-24 19:03 | 51.26231 | -0.59143 | 1468 ft | 176 kts | 301° |
| 2026-04-24 19:03 | 51.26841 | -0.60889 | 1461 ft | 184 kts | 302° |
| 2026-04-24 19:03 | 51.27475 | -0.62717 | 1362 ft | 190 kts | 301° |
| 2026-04-24 19:04 | 51.28111 | -0.64526 | 1208 ft | 184 kts | 302° |
| 2026-04-24 19:04 | 51.28720 | -0.66238 | 1129 ft | 169 kts | 302° |
| 2026-04-24 19:04 | 51.29292 | -0.67833 | 1073 ft | 163 kts | 302° |
| 2026-04-24 19:04 | 51.29672 | -0.69505 | 1142 ft | 158 kts | 275° |
| 2026-04-24 19:05 | 51.29579 | -0.71242 | 1045 ft | 159 kts | 258° |
| 2026-04-24 19:05 | 51.29176 | -0.72874 | 856 ft | 164 kts | 240° |
| 2026-04-24 19:05 | 51.28620 | -0.74480 | 640 ft | 169 kts | 241° |
| 2026-04-24 19:05 | 51.28080 | -0.76137 | 334 ft | 165 kts | 241° |
| 2026-04-24 19:06 | 51.27553 | -0.77699 | 239 ft | 155 kts | 243° |
| 2026-04-24 19:06 | 51.27010 | -0.79351 | 401 ft | 165 kts | 240° |
| 2026-04-24 19:06 | 51.26276 | -0.81123 | 1038 ft | 202 kts | 230° |
| 2026-04-24 19:06 | 51.25259 | -0.82602 | 1271 ft | 186 kts | 220° |
| 2026-04-24 19:07 | 51.24359 | -0.83845 | 1291 ft | 164 kts | 223° |
| 2026-04-24 19:07 | 51.23650 | -0.85362 | 1249 ft | 180 kts | 241° |
| 2026-04-24 19:07 | 51.23353 | -0.86594 | 1278 ft | 180 kts | 262° |
| 2026-04-24 19:07 | 51.23282 | -0.89158 | 1068 ft | 165 kts | 272° |
| 2026-04-24 19:08 | 51.23322 | -0.90852 | 772 ft | 151 kts | 272° |
| 2026-04-24 19:08 | 51.23366 | -0.92541 | 516 ft | 154 kts | 274° |
| 2026-04-24 19:08 | 51.23411 | -0.94217 | 403 ft | 144 kts | 274° |
| 2026-04-24 19:08 | 51.23456 | -0.95946 | 485 ft | 169 kts | 271° |
| 2026-04-24 19:09 | 51.23547 | -0.97916 | 1089 ft | 187 kts | 288° |
| 2026-04-24 19:09 | 51.24278 | -0.99750 | 1733 ft | 206 kts | 318° |
| 2026-04-24 19:09 | 51.25448 | -1.00828 | 2227 ft | 186 kts | 341° |
| 2026-04-24 19:09 | 51.26754 | -1.01448 | 2520 ft | 206 kts | 347° |
| 2026-04-24 19:10 | 51.28200 | -1.01986 | 2956 ft | 220 kts | 348° |
| 2026-04-24 19:10 | 51.29689 | -1.02601 | 3097 ft | 220 kts | 347° |
| 2026-04-24 19:10 | 51.31167 | -1.03276 | 3077 ft | 228 kts | 345° |
| 2026-04-24 19:10 | 51.32706 | -1.04049 | 3087 ft | 235 kts | 343° |
| 2026-04-24 19:11 | 51.34266 | -1.04915 | 3082 ft | 236 kts | 342° |
| 2026-04-24 19:11 | 51.35789 | -1.05849 | 3052 ft | 235 kts | 340° |
| 2026-04-24 19:11 | 51.37276 | -1.06850 | 3076 ft | 228 kts | 338° |
| 2026-04-24 19:11 | 51.38712 | -1.07916 | 3066 ft | 230 kts | 336° |
| 2026-04-24 19:12 | 51.40163 | -1.09034 | 3006 ft | 227 kts | 335° |
| 2026-04-24 19:12 | 51.41513 | -1.10137 | 3059 ft | 214 kts | 334° |
| 2026-04-24 19:12 | 51.42823 | -1.11242 | 2922 ft | 210 kts | 334° |
| 2026-04-24 19:12 | 51.44147 | -1.12090 | 2783 ft | 203 kts | 346° |
| 2026-04-24 19:13 | 51.45063 | -1.12385 | 2725 ft | 196 kts | 350° |
| 2026-04-24 19:13 | 51.46758 | -1.12700 | 2420 ft | 175 kts | 358° |
| 2026-04-24 19:13 | 51.47973 | -1.12610 | 2238 ft | 174 kts | 5° |
| 2026-04-24 19:13 | 51.49189 | -1.12353 | 2069 ft | 176 kts | 10° |
| 2026-04-24 19:14 | 51.50409 | -1.12024 | 1878 ft | 184 kts | 12° |
| 2026-04-24 19:14 | 51.51629 | -1.11660 | 1719 ft | 165 kts | 11° |
| 2026-04-24 19:14 | 51.52743 | -1.11476 | 1571 ft | 162 kts | 7° |
| 2026-04-24 19:14 | 51.53851 | -1.11315 | 1469 ft | 155 kts | 8° |
| 2026-04-24 19:15 | 51.54913 | -1.11083 | 1340 ft | 153 kts | 11° |
| 2026-04-24 19:15 | 51.55963 | -1.10838 | 1177 ft | 152 kts | 11° |
| 2026-04-24 19:15 | 51.57007 | -1.10620 | 1032 ft | 152 kts | 9° |
| 2026-04-24 19:15 | 51.58057 | -1.10377 | 875 ft | 152 kts | 10° |
| 2026-04-24 19:16 | 51.60166 | -1.09891 | 417 ft | 152 kts | 10° |
| 2026-04-24 19:16 | 51.61172 | -1.09668 | 219 ft | 137 kts | 10° |
| 2026-04-24 19:16 | 51.62150 | -1.09458 | 228 ft | 154 kts | 8° |
| 2026-04-24 19:17 | 51.63284 | -1.09297 | 731 ft | 170 kts | 355° |
| 2026-04-24 19:17 | 51.64316 | -1.10140 | 1419 ft | 165 kts | 319° |
| 2026-04-24 19:17 | 51.65146 | -1.11745 | 1852 ft | 185 kts | 305° |
| 2026-04-24 19:17 | 51.65827 | -1.13713 | 2328 ft | 212 kts | 297° |
| 2026-04-24 19:18 | 51.66491 | -1.15891 | 2503 ft | 220 kts | 296° |
| 2026-04-24 19:18 | 51.67172 | -1.18156 | 2546 ft | 226 kts | 296° |
| 2026-04-24 19:18 | 51.67859 | -1.20445 | 2534 ft | 226 kts | 296° |
| 2026-04-24 19:18 | 51.68546 | -1.22773 | 2457 ft | 231 kts | 295° |
| 2026-04-24 19:19 | 51.69237 | -1.25125 | 2423 ft | 232 kts | 295° |
| 2026-04-24 19:19 | 51.69903 | -1.27494 | 2327 ft | 227 kts | 294° |
| 2026-04-24 19:19 | 51.70497 | -1.29665 | 2226 ft | 206 kts | 294° |
| 2026-04-24 19:19 | 51.71024 | -1.31774 | 2183 ft | 201 kts | 294° |
| 2026-04-24 19:20 | 51.71600 | -1.33782 | 2151 ft | 194 kts | 299° |
| 2026-04-24 19:20 | 51.72226 | -1.35695 | 2101 ft | 191 kts | 300° |
| 2026-04-24 19:20 | 51.72835 | -1.37544 | 2061 ft | 183 kts | 300° |
| 2026-04-24 19:20 | 51.73437 | -1.39288 | 2090 ft | 173 kts | 302° |
| 2026-04-24 19:21 | 51.74020 | -1.40951 | 2061 ft | 168 kts | 302° |
| 2026-04-24 19:21 | 51.74586 | -1.42569 | 2010 ft | 168 kts | 302° |
| 2026-04-24 19:21 | 51.75167 | -1.44225 | 1946 ft | 166 kts | 302° |
| 2026-04-24 19:21 | 51.75677 | -1.45849 | 1848 ft | 163 kts | 299° |
| 2026-04-24 19:22 | 51.75965 | -1.46970 | 1778 ft | 156 kts | 295° |
| 2026-04-24 19:22 | 51.76338 | -1.49211 | 1475 ft | 159 kts | 282° |
| 2026-04-24 19:22 | 51.76306 | -1.50996 | 1165 ft | 160 kts | 261° |
| 2026-04-24 19:22 | 51.76028 | -1.52698 | 837 ft | 155 kts | 255° |
| 2026-04-24 19:23 | 51.75726 | -1.54307 | 587 ft | 149 kts | 253° |
| 2026-04-24 19:23 | 51.75430 | -1.55925 | 352 ft | 151 kts | 254° |
| 2026-04-24 19:23 | 51.75140 | -1.57519 | 269 ft | 140 kts | 254° |
| 2026-04-24 19:23 | 51.74836 | -1.59147 | 325 ft | 166 kts | 253° |
| 2026-04-24 19:24 | 51.74367 | -1.60926 | 881 ft | 170 kts | 235° |
| 2026-04-24 19:24 | 51.73407 | -1.62316 | 1293 ft | 183 kts | 217° |
| 2026-04-24 19:24 | 51.72392 | -1.63530 | 1274 ft | 175 kts | 215° |
| 2026-04-24 19:24 | 51.71352 | -1.64678 | 1215 ft | 184 kts | 213° |
| 2026-04-24 19:25 | 51.70295 | -1.65828 | 1233 ft | 180 kts | 212° |
| 2026-04-24 19:25 | 51.69324 | -1.67038 | 1228 ft | 173 kts | 225° |
| 2026-04-24 19:25 | 51.68741 | -1.68603 | 1168 ft | 160 kts | 253° |
| 2026-04-24 19:25 | 51.68544 | -1.70331 | 1028 ft | 156 kts | 266° |
| 2026-04-24 19:26 | 51.68496 | -1.72033 | 886 ft | 155 kts | 269° |
| 2026-04-24 19:26 | 51.68466 | -1.73776 | 737 ft | 158 kts | 269° |
| 2026-04-24 19:26 | 51.68426 | -1.75583 | 485 ft | 163 kts | 269° |
| 2026-04-24 19:26 | 51.68383 | -1.77382 | 293 ft | 156 kts | 268° |
| 2026-04-24 19:27 | 51.68350 | -1.79055 | 266 ft | 154 kts | 268° |
| 2026-04-24 19:27 | 51.68314 | -1.80926 | 594 ft | 176 kts | 268° |
| 2026-04-24 19:27 | 51.68309 | -1.82960 | 1101 ft | 182 kts | 272° |
| 2026-04-24 19:27 | 51.68332 | -1.84970 | 1232 ft | 177 kts | 272° |
| 2026-04-24 19:28 | 51.68349 | -1.86932 | 1216 ft | 181 kts | 272° |
| 2026-04-24 19:28 | 51.68356 | -1.88959 | 1270 ft | 182 kts | 271° |
| 2026-04-24 19:28 | 51.68248 | -1.90993 | 1354 ft | 181 kts | 269° |
| 2026-04-24 19:28 | 51.68114 | -1.93005 | 1323 ft | 180 kts | 266° |
| 2026-04-24 19:29 | 51.67758 | -1.96719 | 1258 ft | 156 kts | 261° |
| 2026-04-24 19:29 | 51.67568 | -1.98427 | 1120 ft | 153 kts | 260° |
| 2026-04-24 19:29 | 51.67381 | -2.00127 | 964 ft | 154 kts | 261° |
| 2026-04-24 19:30 | 51.67200 | -2.01845 | 779 ft | 157 kts | 261° |
| 2026-04-24 19:30 | 51.67021 | -2.03588 | 566 ft | 160 kts | 261° |
| 2026-04-24 19:30 | 51.66844 | -2.05308 | 418 ft | 153 kts | 261° |
| 2026-04-24 19:30 | 51.66652 | -2.07053 | 502 ft | 171 kts | 258° |
| 2026-04-24 19:31 | 51.66492 | -2.09028 | 1034 ft | 181 kts | 279° |
| 2026-04-24 19:31 | 51.67070 | -2.10766 | 1304 ft | 175 kts | 315° |
| 2026-04-24 19:31 | 51.67958 | -2.12024 | 1379 ft | 168 kts | 319° |
| 2026-04-24 19:31 | 51.68915 | -2.13418 | 1428 ft | 193 kts | 317° |
| 2026-04-24 19:32 | 51.70045 | -2.14722 | 1543 ft | 203 kts | 325° |
| 2026-04-24 19:32 | 51.71276 | -2.15904 | 1643 ft | 208 kts | 330° |
| 2026-04-24 19:32 | 51.72670 | -2.16306 | 1715 ft | 204 kts | 6° |
| 2026-04-24 19:32 | 51.73989 | -2.15709 | 1751 ft | 195 kts | 19° |
| 2026-04-24 19:33 | 51.75237 | -2.14902 | 1880 ft | 189 kts | 23° |
| 2026-04-24 19:33 | 51.76447 | -2.14010 | 1878 ft | 190 kts | 25° |
| 2026-04-24 19:33 | 51.77644 | -2.13219 | 1921 ft | 182 kts | 22° |
| 2026-04-24 19:33 | 51.78792 | -2.12494 | 1897 ft | 170 kts | 22° |
| 2026-04-24 19:34 | 51.79888 | -2.11812 | 1888 ft | 168 kts | 20° |
| 2026-04-24 19:34 | 51.80977 | -2.11211 | 1849 ft | 162 kts | 19° |
| 2026-04-24 19:34 | 51.82047 | -2.10686 | 1779 ft | 162 kts | 17° |
| 2026-04-24 19:34 | 51.83125 | -2.10232 | 1717 ft | 158 kts | 14° |
| 2026-04-24 19:35 | 51.84192 | -2.09785 | 1623 ft | 158 kts | 14° |
| 2026-04-24 19:35 | 51.85237 | -2.09358 | 1626 ft | 154 kts | 13° |
| 2026-04-24 19:35 | 51.86276 | -2.08992 | 1586 ft | 151 kts | 12° |
| 2026-04-24 19:35 | 51.87305 | -2.08712 | 1463 ft | 150 kts | 7° |
| 2026-04-24 19:36 | 51.88339 | -2.08919 | 1367 ft | 153 kts | 339° |
| 2026-04-24 19:36 | 51.89178 | -2.09944 | 1273 ft | 152 kts | 309° |
| 2026-04-24 19:36 | 51.89628 | -2.11497 | 1003 ft | 148 kts | 280° |
| 2026-04-24 19:36 | 51.89652 | -2.13052 | 654 ft | 136 kts | 259° |
| 2026-04-24 19:37 | 51.89543 | -2.14650 | 348 ft | 151 kts | 258° |
| 2026-04-24 19:37 | 51.89440 | -2.16326 | 101 ft | 145 kts | 258° |
| 2026-04-24 19:37 | 51.89328 | -2.17981 | 127 ft | 160 kts | 264° |
| 2026-04-24 19:37 | 51.89486 | -2.19766 | 724 ft | 166 kts | 298° |
| 2026-04-24 19:38 | 51.90390 | -2.20958 | 1340 ft | 179 kts | 341° |
| 2026-04-24 19:38 | 51.91670 | -2.20815 | 1814 ft | 201 kts | 29° |
| 2026-04-24 19:38 | 51.92581 | -2.18998 | 2508 ft | 219 kts | 71° |
| 2026-04-24 19:38 | 51.92774 | -2.16470 | 3416 ft | 237 kts | 90° |
| 2026-04-24 19:39 | 51.92795 | -2.13780 | 4384 ft | 246 kts | 90° |
| 2026-04-24 19:39 | 51.92829 | -2.10914 | 5058 ft | 259 kts | 90° |
| 2026-04-24 19:39 | 51.92873 | -2.08030 | 5247 ft | 256 kts | 90° |
| 2026-04-24 19:39 | 51.92928 | -2.05131 | 5197 ft | 258 kts | 89° |
| 2026-04-24 19:40 | 51.92977 | -2.02239 | 5172 ft | 258 kts | 89° |
| 2026-04-24 19:40 | 51.93081 | -1.99361 | 5164 ft | 256 kts | 82° |
| 2026-04-24 19:40 | 51.93211 | -1.96477 | 5159 ft | 256 kts | 91° |
| 2026-04-24 19:40 | 51.93117 | -1.93588 | 5159 ft | 255 kts | 93° |
| 2026-04-24 19:41 | 51.93003 | -1.90743 | 5161 ft | 256 kts | 94° |
| 2026-04-24 19:41 | 51.92885 | -1.87857 | 5162 ft | 257 kts | 94° |
| 2026-04-24 19:41 | 51.92776 | -1.84968 | 5167 ft | 255 kts | 94° |
| 2026-04-24 19:41 | 51.92677 | -1.82068 | 5166 ft | 258 kts | 94° |
| 2026-04-24 19:42 | 51.92588 | -1.79152 | 5164 ft | 258 kts | 94° |
| 2026-04-24 19:42 | 51.92500 | -1.76225 | 5163 ft | 260 kts | 94° |
| 2026-04-24 19:42 | 51.92424 | -1.73281 | 5160 ft | 261 kts | 94° |
| 2026-04-24 19:42 | 51.92314 | -1.70365 | 5156 ft | 259 kts | 94° |
| 2026-04-24 19:43 | 51.92180 | -1.67457 | 5150 ft | 259 kts | 94° |
| 2026-04-24 19:43 | 51.92045 | -1.64588 | 5140 ft | 257 kts | 94° |
| 2026-04-24 19:43 | 51.91908 | -1.61690 | 5113 ft | 259 kts | 94° |
| 2026-04-24 19:43 | 51.91770 | -1.58787 | 5114 ft | 258 kts | 94° |
| 2026-04-24 19:44 | 51.91632 | -1.55886 | 5100 ft | 257 kts | 94° |
| 2026-04-24 19:44 | 51.91694 | -1.52984 | 5083 ft | 258 kts | 82° |
| 2026-04-24 19:44 | 51.91954 | -1.50108 | 5083 ft | 258 kts | 80° |
| 2026-04-24 19:44 | 51.92247 | -1.47243 | 5073 ft | 257 kts | 79° |
| 2026-04-24 19:45 | 51.92553 | -1.44381 | 5074 ft | 257 kts | 79° |
| 2026-04-24 19:45 | 51.92862 | -1.41522 | 5067 ft | 256 kts | 79° |
| 2026-04-24 19:45 | 51.93167 | -1.38705 | 5064 ft | 257 kts | 79° |
| 2026-04-24 19:45 | 51.93476 | -1.35853 | 5062 ft | 257 kts | 79° |
| 2026-04-24 19:46 | 51.93786 | -1.33008 | 5063 ft | 257 kts | 79° |
| 2026-04-24 19:46 | 51.94095 | -1.30155 | 5061 ft | 256 kts | 79° |
| 2026-04-24 19:46 | 51.94406 | -1.27305 | 5060 ft | 256 kts | 79° |
| 2026-04-24 19:46 | 51.94717 | -1.24452 | 5058 ft | 257 kts | 79° |
| 2026-04-24 19:47 | 51.95027 | -1.21597 | 5054 ft | 260 kts | 79° |
| 2026-04-24 19:47 | 51.95336 | -1.18746 | 5052 ft | 255 kts | 79° |
| 2026-04-24 19:47 | 51.95641 | -1.15938 | 5054 ft | 256 kts | 79° |
| 2026-04-24 19:47 | 51.95950 | -1.13089 | 5053 ft | 256 kts | 79° |
| 2026-04-24 19:48 | 51.96258 | -1.10239 | 5058 ft | 257 kts | 79° |
| 2026-04-24 19:48 | 51.96566 | -1.07392 | 5050 ft | 255 kts | 79° |
| 2026-04-24 19:48 | 51.97169 | -1.01765 | 4667 ft | 246 kts | 79° |
| 2026-04-24 19:49 | 51.97698 | -0.96625 | 3983 ft | 227 kts | 79° |
| 2026-04-24 19:49 | 51.98137 | -0.91942 | 3533 ft | 193 kts | 79° |
| 2026-04-24 19:50 | 51.98708 | -0.85818 | 2278 ft | 181 kts | 79° |
| 2026-04-24 19:50 | 51.98900 | -0.83807 | 1804 ft | 179 kts | 79° |
| 2026-04-24 19:51 | 51.99338 | -0.79865 | 1532 ft | 177 kts | 71° |
| 2026-04-24 19:51 | 51.99584 | -0.78577 | 1535 ft | 181 kts | 70° |
| 2026-04-24 19:52 | 52.00476 | -0.74221 | 1599 ft | 167 kts | 69° |
| 2026-04-24 19:52 | 52.00841 | -0.72499 | 1553 ft | 157 kts | 69° |
| 2026-04-24 19:52 | 52.01209 | -0.70851 | 1455 ft | 154 kts | 68° |
| 2026-04-24 19:52 | 52.01602 | -0.69247 | 1349 ft | 151 kts | 63° |
| 2026-04-24 19:53 | 52.02051 | -0.67775 | 1373 ft | 137 kts | 59° |
| 2026-04-24 19:53 | 52.02577 | -0.66502 | 1364 ft | 136 kts | 50° |
| 2026-04-24 19:53 | 52.03891 | -0.64967 | 1104 ft | 146 kts | 29° |
| 2026-04-24 19:54 | 52.04771 | -0.64120 | 910 ft | 148 kts | 32° |
| 2026-04-24 19:54 | 52.05948 | -0.62944 | 595 ft | 150 kts | 31° |
| 2026-04-24 19:54 | 52.06816 | -0.62075 | 381 ft | 143 kts | 31° |
| 2026-04-24 19:54 | 52.07373 | -0.61517 | 369 ft | 141 kts | 32° |
| 2026-04-24 19:55 | 52.07957 | -0.60930 | 458 ft | 154 kts | 32° |
| 2026-04-24 19:55 | 52.09176 | -0.59582 | 1378 ft | 164 kts | 47° |
| 2026-04-24 19:55 | 52.09494 | -0.57762 | 1972 ft | 185 kts | 97° |
| 2026-04-24 19:55 | 52.08826 | -0.55937 | 2464 ft | 203 kts | 137° |
| 2026-04-24 19:56 | 52.07496 | -0.55101 | 2567 ft | 213 kts | 171° |
| 2026-04-24 19:56 | 52.05980 | -0.55090 | 2572 ft | 220 kts | 179° |
| 2026-04-24 19:56 | 52.04403 | -0.55133 | 2516 ft | 228 kts | 179° |
| 2026-04-24 19:56 | 52.02845 | -0.55004 | 2448 ft | 220 kts | 170° |
| 2026-04-24 19:57 | 52.01327 | -0.54499 | 2304 ft | 223 kts | 164° |
| 2026-04-24 19:57 | 51.99839 | -0.53892 | 2258 ft | 217 kts | 163° |
| 2026-04-24 19:57 | 51.98405 | -0.53280 | 2246 ft | 211 kts | 162° |
| 2026-04-24 19:57 | 51.97043 | -0.52676 | 2263 ft | 202 kts | 161° |
| 2026-04-24 19:58 | 51.95694 | -0.52045 | 2170 ft | 202 kts | 161° |
| 2026-04-24 19:58 | 51.94363 | -0.51308 | 2089 ft | 203 kts | 153° |
| 2026-04-24 19:58 | 51.93094 | -0.50333 | 1985 ft | 206 kts | 152° |
| 2026-04-24 19:58 | 51.91829 | -0.49355 | 1906 ft | 192 kts | 152° |
| 2026-04-24 19:59 | 51.90713 | -0.48504 | 1771 ft | 164 kts | 152° |
| 2026-04-24 19:59 | 51.89703 | -0.47744 | 1582 ft | 157 kts | 152° |
| 2026-04-24 19:59 | 51.88728 | -0.47018 | 1471 ft | 152 kts | 152° |
| 2026-04-24 19:59 | 51.87780 | -0.46295 | 1458 ft | 150 kts | 152° |
| 2026-04-24 20:00 | 51.86831 | -0.45538 | 1484 ft | 152 kts | 149° |
| 2026-04-24 20:00 | 51.86121 | -0.44358 | 1494 ft | 146 kts | 104° |
| 2026-04-24 20:00 | 51.86410 | -0.42843 | 1304 ft | 143 kts | 69° |
| 2026-04-24 20:00 | 51.86697 | -0.41281 | 998 ft | 145 kts | 76° |
| 2026-04-24 20:01 | 51.86965 | -0.39705 | 751 ft | 144 kts | 76° |
| 2026-04-24 20:01 | 51.87234 | -0.38157 | 562 ft | 141 kts | 74° |
| 2026-04-24 20:01 | 51.87489 | -0.36682 | 528 ft | 143 kts | 74° |
| 2026-04-24 20:01 | 51.87812 | -0.35065 | 811 ft | 149 kts | 72° |
| 2026-04-24 20:02 | 51.88466 | -0.33546 | 1559 ft | 169 kts | 52° |
| 2026-04-24 20:02 | 51.89304 | -0.32048 | 2076 ft | 183 kts | 52° |
| 2026-04-24 20:02 | 51.90216 | -0.30370 | 2241 ft | 198 kts | 52° |
| 2026-04-24 20:02 | 51.91111 | -0.28689 | 2250 ft | 198 kts | 53° |
| 2026-04-24 20:03 | 51.91996 | -0.26981 | 2243 ft | 200 kts | 53° |
| 2026-04-24 20:03 | 51.92874 | -0.25268 | 2239 ft | 199 kts | 53° |
| 2026-04-24 20:03 | 51.93750 | -0.23544 | 2233 ft | 199 kts | 53° |
| 2026-04-24 20:03 | 51.94622 | -0.21810 | 2239 ft | 197 kts | 53° |
| 2026-04-24 20:04 | 51.95488 | -0.20075 | 2258 ft | 195 kts | 54° |
| 2026-04-24 20:04 | 51.96351 | -0.18332 | 2258 ft | 198 kts | 54° |
| 2026-04-24 20:04 | 51.97214 | -0.16566 | 2243 ft | 200 kts | 54° |
| 2026-04-24 20:04 | 51.98047 | -0.14766 | 2207 ft | 204 kts | 56° |
| 2026-04-24 20:05 | 51.98870 | -0.12881 | 2229 ft | 204 kts | 58° |
| 2026-04-24 20:05 | 51.99628 | -0.10931 | 2204 ft | 205 kts | 60° |
| 2026-04-24 20:05 | 52.00371 | -0.08935 | 2188 ft | 208 kts | 60° |
| 2026-04-24 20:05 | 52.01110 | -0.06908 | 2182 ft | 208 kts | 61° |
| 2026-04-24 20:06 | 52.01818 | -0.04903 | 2177 ft | 201 kts | 62° |
| 2026-04-24 20:06 | 52.02461 | -0.03035 | 2107 ft | 176 kts | 63° |
| 2026-04-24 20:06 | 52.03062 | -0.01454 | 1986 ft | 151 kts | 58° |
| 2026-04-24 20:06 | 52.03673 | -0.00066 | 1821 ft | 155 kts | 54° |
| 2026-04-24 20:07 | 52.04108 | 0.00868 | 1735 ft | 157 kts | 54° |
| 2026-04-24 20:07 | 52.05004 | 0.02785 | 1527 ft | 165 kts | 54° |
| 2026-04-24 20:07 | 52.05681 | 0.04303 | 1357 ft | 168 kts | 58° |
| 2026-04-24 20:07 | 52.06287 | 0.05847 | 1220 ft | 152 kts | 59° |
| 2026-04-24 20:08 | 52.06782 | 0.07242 | 1061 ft | 137 kts | 60° |
| 2026-04-24 20:08 | 52.07297 | 0.08571 | 822 ft | 142 kts | 59° |
| 2026-04-24 20:08 | 52.07844 | 0.09968 | 578 ft | 149 kts | 58° |
| 2026-04-24 20:08 | 52.08389 | 0.11413 | 308 ft | 144 kts | 58° |
| 2026-04-24 20:09 | 52.08894 | 0.12730 | 122 ft | 132 kts | 57° |
| 2026-04-24 20:09 | 52.09414 | 0.14083 | 216 ft | 153 kts | 57° |
| 2026-04-24 20:09 | 52.10216 | 0.15291 | 697 ft | 172 kts | 20° |
| 2026-04-24 20:09 | 52.11414 | 0.15134 | 972 ft | 180 kts | 335° |
| 2026-04-24 20:10 | 52.12512 | 0.14184 | 1002 ft | 173 kts | 332° |
| 2026-04-24 20:10 | 52.13575 | 0.13240 | 1067 ft | 174 kts | 332° |
| 2026-04-24 20:10 | 52.14634 | 0.12300 | 1097 ft | 174 kts | 332° |
| 2026-04-24 20:10 | 52.15701 | 0.11352 | 1040 ft | 170 kts | 332° |
| 2026-04-24 20:11 | 52.16728 | 0.10803 | 817 ft | 152 kts | 11° |
| 2026-04-24 20:11 | 52.17460 | 0.11885 | 701 ft | 135 kts | 44° |
| 2026-04-24 20:11 | 52.18115 | 0.12994 | 624 ft | 138 kts | 42° |
| 2026-04-24 20:11 | 52.18770 | 0.14156 | 470 ft | 145 kts | 48° |
| 2026-04-24 20:12 | 52.19425 | 0.15426 | 284 ft | 146 kts | 48° |
| 2026-04-24 20:12 | 52.20066 | 0.16652 | 67 ft | 140 kts | 50° |
| 2026-04-24 20:12 | 52.20667 | 0.17824 | 49 ft | 141 kts | 50° |
| 2026-04-24 20:12 | 52.21356 | 0.19131 | 377 ft | 160 kts | 50° |
| 2026-04-24 20:13 | 52.22099 | 0.20516 | 1108 ft | 162 kts | 50° |
| 2026-04-24 20:13 | 52.22862 | 0.21926 | 1537 ft | 167 kts | 50° |
| 2026-04-24 20:13 | 52.23633 | 0.23371 | 1523 ft | 177 kts | 51° |
| 2026-04-24 20:13 | 52.24430 | 0.24875 | 1532 ft | 178 kts | 51° |
| 2026-04-24 20:14 | 52.25244 | 0.26421 | 1539 ft | 180 kts | 51° |
| 2026-04-24 20:14 | 52.26048 | 0.27939 | 1567 ft | 172 kts | 47° |
| 2026-04-24 20:14 | 52.27025 | 0.29052 | 1574 ft | 175 kts | 29° |
| 2026-04-24 20:14 | 52.28100 | 0.29969 | 1506 ft | 171 kts | 28° |
| 2026-04-24 20:15 | 52.29149 | 0.30873 | 1536 ft | 167 kts | 28° |
| 2026-04-24 20:15 | 52.30184 | 0.31765 | 1476 ft | 169 kts | 28° |
| 2026-04-24 20:15 | 52.31196 | 0.32648 | 1489 ft | 163 kts | 28° |
| 2026-04-24 20:15 | 52.32218 | 0.33475 | 1478 ft | 164 kts | 28° |
| 2026-04-24 20:16 | 52.33233 | 0.34306 | 1455 ft | 168 kts | 31° |
| 2026-04-24 20:16 | 52.34252 | 0.35297 | 1397 ft | 169 kts | 35° |
| 2026-04-24 20:16 | 52.35182 | 0.36381 | 1366 ft | 161 kts | 39° |
| 2026-04-24 20:16 | 52.36015 | 0.37537 | 1237 ft | 156 kts | 48° |
| 2026-04-24 20:17 | 52.36684 | 0.38939 | 1087 ft | 158 kts | 60° |
| 2026-04-24 20:17 | 52.37125 | 0.42180 | 658 ft | 140 kts | 111° |
| 2026-04-24 20:17 | 52.36888 | 0.43609 | 472 ft | 132 kts | 98° |
| 2026-04-24 20:18 | 52.36775 | 0.44595 | 350 ft | 133 kts | 101° |
| 2026-04-24 20:18 | 52.36496 | 0.46565 | 63 ft | 134 kts | 103° |
| 2026-04-24 20:18 | 52.36287 | 0.48007 | 33 ft | 133 kts | 103° |
| 2026-04-24 20:18 | 52.36063 | 0.49625 | 208 ft | 156 kts | 102° |
| 2026-04-24 20:19 | 52.35694 | 0.51352 | 889 ft | 162 kts | 120° |
| 2026-04-24 20:19 | 52.35008 | 0.52809 | 1630 ft | 164 kts | 129° |
| 2026-04-24 20:19 | 52.34213 | 0.54329 | 1988 ft | 179 kts | 128° |
| 2026-04-24 20:19 | 52.33406 | 0.55889 | 1986 ft | 179 kts | 128° |
| 2026-04-24 20:20 | 52.32588 | 0.57407 | 1992 ft | 177 kts | 129° |
| 2026-04-24 20:20 | 52.31782 | 0.58894 | 1994 ft | 174 kts | 129° |
| 2026-04-24 20:20 | 52.30979 | 0.60375 | 1994 ft | 173 kts | 129° |
| 2026-04-24 20:20 | 52.30177 | 0.61852 | 1996 ft | 174 kts | 129° |
| 2026-04-24 20:21 | 52.29377 | 0.63326 | 1994 ft | 173 kts | 129° |
| 2026-04-24 20:21 | 52.28576 | 0.64801 | 1991 ft | 175 kts | 129° |
| 2026-04-24 20:21 | 52.27780 | 0.66264 | 2000 ft | 168 kts | 129° |
| 2026-04-24 20:21 | 52.27030 | 0.67637 | 1994 ft | 160 kts | 129° |
| 2026-04-24 20:22 | 52.26305 | 0.68960 | 1995 ft | 154 kts | 129° |
| 2026-04-24 20:22 | 52.25599 | 0.70248 | 1996 ft | 152 kts | 129° |
| 2026-04-24 20:22 | 52.24886 | 0.71545 | 1997 ft | 153 kts | 129° |
| 2026-04-24 20:22 | 52.24177 | 0.72840 | 1998 ft | 153 kts | 129° |
| 2026-04-24 20:23 | 52.23680 | 0.74360 | 1998 ft | 152 kts | 110° |
| 2026-04-24 20:23 | 52.23323 | 0.75998 | 1996 ft | 153 kts | 108° |
| 2026-04-24 20:23 | 52.22984 | 0.77636 | 1996 ft | 151 kts | 107° |
| 2026-04-24 20:23 | 52.22647 | 0.79278 | 2007 ft | 152 kts | 107° |
| 2026-04-24 20:24 | 52.22316 | 0.80896 | 2009 ft | 152 kts | 107° |
| 2026-04-24 20:24 | 52.21974 | 0.82562 | 2009 ft | 153 kts | 107° |
| 2026-04-24 20:24 | 52.21634 | 0.84218 | 2008 ft | 158 kts | 107° |
| 2026-04-24 20:24 | 52.21287 | 0.85901 | 2014 ft | 154 kts | 107° |
| 2026-04-24 20:25 | 52.20952 | 0.87532 | 1876 ft | 149 kts | 107° |
| 2026-04-24 20:25 | 52.20641 | 0.89115 | 1632 ft | 144 kts | 107° |
| 2026-04-24 20:25 | 52.20365 | 0.90663 | 1402 ft | 146 kts | 105° |
| 2026-04-24 20:25 | 52.20099 | 0.92280 | 1255 ft | 148 kts | 104° |
| 2026-04-24 20:26 | 52.19856 | 0.93879 | 1190 ft | 141 kts | 103° |
| 2026-04-24 20:26 | 52.19640 | 0.95439 | 1189 ft | 139 kts | 102° |
| 2026-04-24 20:26 | 52.19437 | 0.97006 | 1124 ft | 145 kts | 101° |
| 2026-04-24 20:26 | 52.19184 | 0.98598 | 1058 ft | 149 kts | 107° |
| 2026-04-24 20:27 | 52.18590 | 0.99953 | 1087 ft | 142 kts | 132° |
| 2026-04-24 20:27 | 52.17812 | 1.00919 | 1025 ft | 140 kts | 147° |
| 2026-04-24 20:27 | 52.16904 | 1.01419 | 985 ft | 137 kts | 169° |
| 2026-04-24 20:27 | 52.15944 | 1.01299 | 879 ft | 144 kts | 197° |
| 2026-04-24 20:28 | 52.15203 | 1.00200 | 796 ft | 149 kts | 239° |
| 2026-04-24 20:28 | 52.14598 | 0.98878 | 659 ft | 149 kts | 218° |
| 2026-04-24 20:28 | 52.13900 | 0.97677 | 481 ft | 148 kts | 226° |
| 2026-04-24 20:28 | 52.13207 | 0.96438 | 298 ft | 143 kts | 225° |
| 2026-04-24 20:29 | 52.12754 | 0.95639 | 296 ft | 145 kts | 230° |
| 2026-04-24 20:29 | 52.11795 | 0.93897 | 565 ft | 168 kts | 227° |
| 2026-04-24 20:29 | 52.11142 | 0.92261 | 1284 ft | 176 kts | 239° |
| 2026-04-24 20:29 | 52.10551 | 0.90486 | 1854 ft | 176 kts | 240° |
| 2026-04-24 20:30 | 52.09989 | 0.88768 | 2246 ft | 170 kts | 240° |
| 2026-04-24 20:30 | 52.09437 | 0.87063 | 2475 ft | 170 kts | 240° |
| 2026-04-24 20:30 | 52.08896 | 0.85382 | 2526 ft | 170 kts | 240° |
| 2026-04-24 20:30 | 52.08351 | 0.83686 | 2522 ft | 169 kts | 240° |
| 2026-04-24 20:31 | 52.07804 | 0.82002 | 2522 ft | 169 kts | 240° |
| 2026-04-24 20:31 | 52.07259 | 0.80323 | 2519 ft | 167 kts | 240° |
| 2026-04-24 20:31 | 52.06715 | 0.78650 | 2520 ft | 167 kts | 240° |
| 2026-04-24 20:31 | 52.06168 | 0.76975 | 2512 ft | 168 kts | 240° |
| 2026-04-24 20:32 | 52.05624 | 0.75297 | 2510 ft | 166 kts | 240° |
| 2026-04-24 20:32 | 52.05079 | 0.73618 | 2508 ft | 166 kts | 240° |
| 2026-04-24 20:32 | 52.04535 | 0.71939 | 2518 ft | 166 kts | 240° |
| 2026-04-24 20:32 | 52.03987 | 0.70263 | 2488 ft | 172 kts | 239° |
| 2026-04-24 20:33 | 52.03404 | 0.68489 | 2449 ft | 185 kts | 239° |
| 2026-04-24 20:33 | 52.02779 | 0.66602 | 2421 ft | 196 kts | 239° |
| 2026-04-24 20:33 | 52.02128 | 0.64644 | 2371 ft | 198 kts | 239° |
| 2026-04-24 20:33 | 52.01493 | 0.62681 | 2274 ft | 195 kts | 240° |
| 2026-04-24 20:34 | 52.00882 | 0.60768 | 2236 ft | 189 kts | 240° |
| 2026-04-24 20:34 | 52.00278 | 0.58903 | 2150 ft | 190 kts | 240° |
| 2026-04-24 20:34 | 51.99668 | 0.57043 | 2179 ft | 183 kts | 239° |
| 2026-04-24 20:34 | 51.99073 | 0.55258 | 2171 ft | 178 kts | 239° |
| 2026-04-24 20:35 | 51.98553 | 0.53401 | 2168 ft | 179 kts | 243° |
| 2026-04-24 20:35 | 51.98125 | 0.51454 | 2149 ft | 184 kts | 247° |
| 2026-04-24 20:35 | 51.97690 | 0.49520 | 2170 ft | 186 kts | 247° |
| 2026-04-24 20:35 | 51.97251 | 0.47545 | 2173 ft | 186 kts | 247° |
| 2026-04-24 20:36 | 51.96807 | 0.45556 | 2174 ft | 189 kts | 247° |
| 2026-04-24 20:36 | 51.96351 | 0.43511 | 2126 ft | 191 kts | 247° |
| 2026-04-24 20:36 | 51.95902 | 0.41480 | 2109 ft | 191 kts | 248° |
| 2026-04-24 20:36 | 51.95467 | 0.39459 | 2062 ft | 191 kts | 248° |
| 2026-04-24 20:37 | 51.95046 | 0.37445 | 2074 ft | 186 kts | 248° |
| 2026-04-24 20:37 | 51.94642 | 0.35544 | 1904 ft | 170 kts | 247° |
| 2026-04-24 20:37 | 51.94221 | 0.33847 | 1724 ft | 156 kts | 242° |
| 2026-04-24 20:37 | 51.93743 | 0.32290 | 1497 ft | 153 kts | 237° |
| 2026-04-24 20:38 | 51.93189 | 0.30854 | 1316 ft | 149 kts | 231° |
| 2026-04-24 20:38 | 51.92555 | 0.29617 | 1183 ft | 138 kts | 222° |
| 2026-04-24 20:38 | 51.91873 | 0.28505 | 1023 ft | 143 kts | 219° |
| 2026-04-24 20:38 | 51.91154 | 0.27425 | 839 ft | 141 kts | 219° |
| 2026-04-24 20:39 | 51.90419 | 0.26342 | 646 ft | 144 kts | 219° |
| 2026-04-24 20:39 | 51.89672 | 0.25237 | 424 ft | 146 kts | 220° |
| 2026-04-24 20:39 | 51.88944 | 0.24145 | 361 ft | 137 kts | 222° |
| 2026-04-24 20:39 | 51.88223 | 0.23074 | 381 ft | 156 kts | 223° |
| 2026-04-24 20:40 | 51.87375 | 0.21832 | 956 ft | 169 kts | 207° |
| 2026-04-24 20:40 | 51.86223 | 0.21600 | 1720 ft | 161 kts | 165° |
| 2026-04-24 20:40 | 51.85158 | 0.22709 | 2043 ft | 187 kts | 136° |
| 2026-04-24 20:40 | 51.84372 | 0.24326 | 2050 ft | 180 kts | 124° |
| 2026-04-24 20:41 | 51.83690 | 0.25983 | 2035 ft | 175 kts | 123° |
| 2026-04-24 20:41 | 51.83024 | 0.27631 | 2029 ft | 173 kts | 123° |
| 2026-04-24 20:41 | 51.82360 | 0.29271 | 2031 ft | 172 kts | 123° |
| 2026-04-24 20:41 | 51.81695 | 0.30904 | 2033 ft | 176 kts | 123° |
| 2026-04-24 20:42 | 51.81038 | 0.32513 | 2032 ft | 174 kts | 123° |
| 2026-04-24 20:42 | 51.80311 | 0.34286 | 2056 ft | 207 kts | 123° |
| 2026-04-24 20:42 | 51.79470 | 0.36346 | 2054 ft | 228 kts | 123° |
| 2026-04-24 20:42 | 51.78585 | 0.38534 | 2044 ft | 236 kts | 123° |
| 2026-04-24 20:43 | 51.77696 | 0.40780 | 2040 ft | 238 kts | 123° |
| 2026-04-24 20:43 | 51.76817 | 0.43030 | 2040 ft | 236 kts | 123° |
| 2026-04-24 20:43 | 51.75957 | 0.45296 | 2055 ft | 234 kts | 121° |
| 2026-04-24 20:43 | 51.75146 | 0.47602 | 2096 ft | 235 kts | 120° |
| 2026-04-24 20:44 | 51.74371 | 0.49929 | 2114 ft | 234 kts | 118° |
| 2026-04-24 20:44 | 51.73611 | 0.52228 | 2125 ft | 232 kts | 118° |
| 2026-04-24 20:44 | 51.72853 | 0.54498 | 2119 ft | 228 kts | 117° |
| 2026-04-24 20:44 | 51.72114 | 0.56672 | 1949 ft | 224 kts | 117° |
| 2026-04-24 20:45 | 51.71349 | 0.58827 | 1820 ft | 217 kts | 117° |
| 2026-04-24 20:45 | 51.70608 | 0.60851 | 1788 ft | 207 kts | 119° |
| 2026-04-24 20:45 | 51.69793 | 0.62769 | 1768 ft | 207 kts | 123° |
| 2026-04-24 20:45 | 51.68962 | 0.64653 | 1669 ft | 209 kts | 127° |
| 2026-04-24 20:46 | 51.68079 | 0.66385 | 1612 ft | 193 kts | 130° |
| 2026-04-24 20:46 | 51.67175 | 0.67925 | 1470 ft | 181 kts | 134° |
| 2026-04-24 20:46 | 51.66300 | 0.69291 | 1284 ft | 176 kts | 136° |
| 2026-04-24 20:46 | 51.65393 | 0.70559 | 1253 ft | 168 kts | 139° |
| 2026-04-24 20:47 | 51.64511 | 0.71749 | 1206 ft | 163 kts | 140° |
| 2026-04-24 20:47 | 51.63632 | 0.72860 | 1075 ft | 158 kts | 143° |
| 2026-04-24 20:47 | 51.62771 | 0.73901 | 1105 ft | 148 kts | 144° |
| 2026-04-24 20:47 | 51.61865 | 0.74619 | 1057 ft | 145 kts | 159° |
| 2026-04-24 20:48 | 51.60866 | 0.74715 | 905 ft | 143 kts | 184° |
| 2026-04-24 20:48 | 51.59912 | 0.74335 | 748 ft | 144 kts | 198° |
| 2026-04-24 20:48 | 51.59048 | 0.73514 | 609 ft | 141 kts | 216° |
| 2026-04-24 20:48 | 51.58408 | 0.72347 | 413 ft | 141 kts | 228° |
| 2026-04-24 20:49 | 51.57836 | 0.71090 | 213 ft | 137 kts | 229° |
| 2026-04-24 20:49 | 51.57280 | 0.69860 | 56 ft | 132 kts | 230° |
| 2026-04-24 20:49 | 51.56720 | 0.68641 | 108 ft | 140 kts | 233° |
| 2026-04-24 20:49 | 51.56067 | 0.67149 | 495 ft | 173 kts | 236° |
| 2026-04-24 20:50 | 51.55361 | 0.65408 | 473 ft | 188 kts | 237° |
| 2026-04-24 20:50 | 51.54687 | 0.63676 | 486 ft | 177 kts | 238° |
| 2026-04-24 20:50 | 51.54114 | 0.61998 | 630 ft | 176 kts | 247° |
| 2026-04-24 20:50 | 51.53686 | 0.60046 | 913 ft | 197 kts | 251° |
| 2026-04-24 20:51 | 51.53114 | 0.57944 | 1261 ft | 212 kts | 248° |
| 2026-04-24 20:51 | 51.52494 | 0.55682 | 1312 ft | 224 kts | 248° |
| 2026-04-24 20:51 | 51.51882 | 0.53404 | 1319 ft | 220 kts | 248° |
| 2026-04-24 20:51 | 51.51288 | 0.51133 | 1447 ft | 222 kts | 248° |
| 2026-04-24 20:52 | 51.50708 | 0.48838 | 1573 ft | 220 kts | 248° |
| 2026-04-24 20:52 | 51.50139 | 0.46525 | 1737 ft | 221 kts | 248° |
| 2026-04-24 20:52 | 51.49573 | 0.44195 | 1798 ft | 222 kts | 248° |
| 2026-04-24 20:52 | 51.48992 | 0.41804 | 1837 ft | 240 kts | 248° |
| 2026-04-24 20:53 | 51.48372 | 0.39273 | 1837 ft | 245 kts | 248° |
| 2026-04-24 20:53 | 51.47740 | 0.36725 | 1834 ft | 244 kts | 248° |
| 2026-04-24 20:53 | 51.47304 | 0.34122 | 1834 ft | 246 kts | 260° |
| 2026-04-24 20:53 | 51.47040 | 0.31380 | 1492 ft | 252 kts | 259° |
| 2026-04-24 20:54 | 51.46838 | 0.28585 | 1206 ft | 254 kts | 261° |
| 2026-04-24 20:54 | 51.46913 | 0.25743 | 952 ft | 253 kts | 279° |
| 2026-04-24 20:54 | 51.47612 | 0.23224 | 853 ft | 247 kts | 300° |
| 2026-04-24 20:54 | 51.48265 | 0.20723 | 849 ft | 242 kts | 285° |
| 2026-04-24 20:55 | 51.49133 | 0.18477 | 826 ft | 236 kts | 317° |
| 2026-04-24 20:55 | 51.50397 | 0.16764 | 757 ft | 235 kts | 309° |
| 2026-04-24 20:55 | 51.50951 | 0.14503 | 1032 ft | 218 kts | 270° |
| 2026-04-24 20:55 | 51.50651 | 0.12032 | 1126 ft | 229 kts | 250° |
| 2026-04-24 20:56 | 51.50143 | 0.09510 | 1107 ft | 242 kts | 249° |
| 2026-04-24 20:56 | 51.49689 | 0.06905 | 1042 ft | 239 kts | 254° |
| 2026-04-24 20:56 | 51.49375 | 0.04353 | 1013 ft | 225 kts | 257° |
| 2026-04-24 20:56 | 51.49079 | 0.01940 | 976 ft | 214 kts | 257° |
| 2026-04-24 20:57 | 51.48809 | -0.00326 | 1098 ft | 204 kts | 258° |
| 2026-04-24 20:57 | 51.48718 | -0.02541 | 1162 ft | 199 kts | 268° |
| 2026-04-24 20:57 | 51.48761 | -0.04764 | 1111 ft | 197 kts | 271° |
| 2026-04-24 20:57 | 51.48834 | -0.06964 | 1095 ft | 197 kts | 272° |
| 2026-04-24 20:58 | 51.49146 | -0.09007 | 1134 ft | 190 kts | 305° |
| 2026-04-24 20:58 | 51.50237 | -0.09861 | 1194 ft | 175 kts | 8° |
| 2026-04-24 20:58 | 51.51049 | -0.08712 | 1320 ft | 158 kts | 74° |
| 2026-04-24 20:58 | 51.51006 | -0.06927 | 1169 ft | 162 kts | 96° |
| 2026-04-24 20:59 | 51.50892 | -0.05180 | 1095 ft | 153 kts | 94° |
| 2026-04-24 20:59 | 51.50809 | -0.03518 | 948 ft | 146 kts | 93° |
| 2026-04-24 20:59 | 51.50757 | -0.01900 | 747 ft | 144 kts | 92° |
| 2026-04-24 20:59 | 51.50704 | -0.00292 | 578 ft | 142 kts | 92° |
| 2026-04-24 21:00 | 51.50655 | 0.01274 | 396 ft | 141 kts | 91° |
| 2026-04-24 21:00 | 51.50609 | 0.02810 | 228 ft | 139 kts | 92° |
| 2026-04-24 21:00 | 51.50561 | 0.04335 | 52 ft | 136 kts | 92° |
| 2026-04-24 21:00 | 51.50516 | 0.05797 | 28 ft | 136 kts | 94° |
| 2026-04-24 21:01 | 51.50477 | 0.07478 | 370 ft | 160 kts | 94° |
| 2026-04-24 21:01 | 51.50018 | 0.09035 | 847 ft | 153 kts | 130° |
| 2026-04-24 21:01 | 51.49078 | 0.09749 | 1027 ft | 157 kts | 172° |
| 2026-04-24 21:01 | 51.47984 | 0.09707 | 1174 ft | 154 kts | 178° |
| 2026-04-24 21:02 | 51.46891 | 0.09620 | 1325 ft | 157 kts | 178° |
| 2026-04-24 21:02 | 51.45800 | 0.09529 | 1467 ft | 158 kts | 178° |
| 2026-04-24 21:02 | 51.44719 | 0.09441 | 1518 ft | 156 kts | 178° |
| 2026-04-24 21:02 | 51.43616 | 0.09270 | 1518 ft | 161 kts | 186° |
| 2026-04-24 21:03 | 51.42541 | 0.08919 | 1517 ft | 155 kts | 188° |
| 2026-04-24 21:03 | 51.41497 | 0.08576 | 1514 ft | 153 kts | 189° |
| 2026-04-24 21:03 | 51.40457 | 0.08232 | 1466 ft | 152 kts | 189° |
| 2026-04-24 21:03 | 51.39450 | 0.07699 | 1447 ft | 151 kts | 196° |
| 2026-04-24 21:04 | 51.38486 | 0.07103 | 1397 ft | 145 kts | 195° |
| 2026-04-24 21:04 | 51.37564 | 0.06547 | 1313 ft | 140 kts | 196° |
| 2026-04-24 21:04 | 51.36662 | 0.05955 | 1169 ft | 143 kts | 198° |
| 2026-04-24 21:04 | 51.35737 | 0.05274 | 962 ft | 152 kts | 202° |
| 2026-04-24 21:05 | 51.34766 | 0.04511 | 759 ft | 160 kts | 201° |
| 2026-04-24 21:05 | 51.33772 | 0.03761 | 556 ft | 151 kts | 202° |
| 2026-04-24 21:05 | 51.33048 | 0.03206 | 581 ft | 66 kts | 206° |
| 2026-04-24 21:05 | 51.32897 | 0.03092 | 590 ft | 0 kts | 205° |
| 2026-04-24 21:06 | 51.32883 | 0.03082 | 592 ft | 8 kts | 205° |
| 2026-04-24 21:06 | 51.32831 | 0.03042 | 592 ft | 8 kts | 206° |
| 2026-04-24 21:06 | 51.32761 | 0.02989 | 590 ft | 15 kts | 204° |
| 2026-04-24 21:06 | 51.32663 | 0.02916 | 608 ft | 16 kts | 206° |
| 2026-04-24 21:07 | 51.32559 | 0.02835 | 612 ft | 17 kts | 206° |
| 2026-04-24 21:07 | 51.32461 | 0.02758 | 612 ft | 11 kts | 206° |
| 2026-04-24 21:07 | 51.32414 | 0.02707 | 612 ft | 9 kts | 255° |
| 2026-04-24 21:07 | 51.32432 | 0.02597 | 612 ft | 11 kts | 311° |
| 2026-04-24 21:08 | 51.32499 | 0.02546 | 611 ft | 11 kts | 0° |
| 2026-04-24 21:08 | 51.32579 | 0.02582 | 609 ft | 13 kts | 25° |
| 2026-04-24 21:08 | 51.32669 | 0.02648 | 610 ft | 15 kts | 25° |
| 2026-04-24 21:08 | 51.32774 | 0.02730 | 605 ft | 18 kts | 30° |
| 2026-04-24 21:09 | 51.32894 | 0.02831 | 588 ft | 20 kts | 19° |
| 2026-04-24 21:09 | 51.33016 | 0.02911 | 587 ft | 20 kts | 26° |
| 2026-04-24 21:09 | 51.33124 | 0.02993 | 584 ft | 16 kts | 24° |
| 2026-04-24 21:09 | 51.33213 | 0.03058 | 582 ft | 10 kts | 25° |
| 2026-04-24 21:10 | 51.33271 | 0.03058 | 577 ft | 5 kts | 324° |
| 2026-04-24 21:10 | 51.33296 | 0.03019 | 577 ft | 2 kts | 311° |